Time;durP1;ratioP1;P1;durP2;ratioP2;P2;SDS_P1;SDS_P2;PMS_P1;PMS_P2;Temp;Humidity;BMP_temperature;BMP_pressure;BME280_temperature;BME280_humidity;BME280_pressure;Samples;Min_cycle;Max_cycle;Signal;HPM_P1;HPM_P2
2022/10/06 00:00:51;;;;;;;6.93;0.32;;;12.30;99.90;;;;;;5048115;28;20537;-40
2022/10/06 00:03:18;;;;;;;10.85;0.47;;;12.30;99.90;;;;;;5048282;28;20098;-39
2022/10/06 00:05:43;;;;;;;7.10;0.40;;;12.60;99.90;;;;;;5048393;28;20047;-40
2022/10/06 00:08:10;;;;;;;4.22;0.65;;;12.30;99.90;;;;;;5048518;28;20041;-40
2022/10/06 00:10:36;;;;;;;8.10;0.40;;;12.00;99.90;;;;;;5048180;28;20076;-40
2022/10/06 00:13:01;;;;;;;7.55;0.60;;;11.70;99.90;;;;;;5047943;28;20040;-40
2022/10/06 00:15:30;;;;;;;4.43;0.60;;;11.90;99.90;;;;;;5047855;28;20095;-40
2022/10/06 00:17:56;;;;;;;8.38;0.80;;;12.00;99.90;;;;;;5047654;28;20124;-40
2022/10/06 00:20:23;;;;;;;9.70;1.15;;;11.50;99.90;;;;;;5047527;28;20509;-40
2022/10/06 00:22:50;;;;;;;10.10;0.50;;;12.40;99.90;;;;;;5047520;28;20045;-40
2022/10/06 00:25:19;;;;;;;6.28;0.30;;;11.90;99.90;;;;;;5047774;28;20128;-40
2022/10/06 00:27:47;;;;;;;5.28;0.90;;;11.40;99.90;;;;;;5047666;28;20064;-40
2022/10/06 00:30:19;;;;;;;4.57;0.60;;;11.60;99.90;;;;;;5047713;28;20043;-39
2022/10/06 00:32:52;;;;;;;;;;;11.30;99.90;;;;;;5047973;28;20041;-39
2022/10/06 00:35:18;;;;;;;6.60;0.82;;;11.30;99.90;;;;;;5047275;28;20383;-39
2022/10/06 00:37:44;;;;;;;8.13;1.52;;;11.50;99.90;;;;;;5047489;28;20049;-39
2022/10/06 00:40:09;;;;;;;5.85;0.60;;;11.60;99.90;;;;;;5047961;28;20340;-39
2022/10/06 00:42:54;;;;;;;8.27;0.70;;;11.20;99.90;;;;;;5047674;28;20686;-39
2022/10/06 00:45:28;;;;;;;7.28;0.80;;;11.20;99.90;;;;;;5047435;28;20049;-39
2022/10/06 00:47:57;;;;;;;12.00;0.75;;;11.50;99.90;;;;;;5047621;28;20040;-39
2022/10/06 00:50:23;;;;;;;7.18;1.00;;;12.30;99.90;;;;;;5047492;28;20025;-39
2022/10/06 00:52:48;;;;;;;7.20;0.73;;;11.60;99.90;;;;;;5047374;28;20557;-39
2022/10/06 00:55:14;;;;;;;9.55;1.52;;;11.10;99.90;;;;;;5047257;28;20136;-40
2022/10/06 00:57:41;;;;;;;9.85;1.00;;;11.10;99.90;;;;;;5047157;28;20076;-40
2022/10/06 01:00:08;;;;;;;9.88;0.70;;;11.40;99.90;;;;;;5047504;28;20126;-40
2022/10/06 01:02:48;;;;;;;5.90;0.75;;;11.00;99.90;;;;;;5047629;28;20445;-40
2022/10/06 01:05:21;;;;;;;7.22;1.30;;;11.10;99.90;;;;;;5047059;28;20051;-40
2022/10/06 01:07:47;;;;;;;5.63;0.73;;;11.10;99.90;;;;;;5046896;28;20049;-39
2022/10/06 01:10:13;;;;;;;12.75;1.02;;;10.80;99.90;;;;;;5047017;28;20047;-39
2022/10/06 01:12:39;;;;;;;8.65;0.75;;;11.10;99.90;;;;;;5046949;28;20143;-39
2022/10/06 01:15:06;;;;;;;11.70;1.55;;;11.00;99.90;;;;;;5047225;28;20040;-39
2022/10/06 01:17:36;;;;;;;8.10;0.75;;;11.00;99.90;;;;;;5047092;28;20084;-39
2022/10/06 01:20:07;;;;;;;12.30;0.90;;;11.00;99.90;;;;;;5047217;28;20045;-39
2022/10/06 01:22:41;;;;;;;8.63;0.50;;;11.00;99.90;;;;;;5047260;28;20044;-39
2022/10/06 01:25:09;;;;;;;10.00;0.60;;;10.90;99.90;;;;;;5047056;28;20546;-39
2022/10/06 01:27:36;;;;;;;5.03;0.50;;;11.00;99.90;;;;;;5045541;28;20490;-39
2022/10/06 01:30:03;;;;;;;7.40;0.68;;;10.80;99.90;;;;;;5047002;28;20041;-39
2022/10/06 01:32:33;;;;;;;9.38;0.70;;;11.00;99.90;;;;;;5046924;28;20128;-39
2022/10/06 01:34:58;;;;;;;13.15;0.80;;;10.80;99.90;;;;;;5047108;28;20139;-39
2022/10/06 01:37:24;;;;;;;10.95;0.90;;;10.90;99.90;;;;;;5047639;28;20068;-40
2022/10/06 01:39:50;;;;;;;7.57;0.70;;;10.80;99.90;;;;;;5046694;28;20136;-39
2022/10/06 01:42:16;;;;;;;9.77;0.85;;;11.10;99.90;;;;;;5046929;28;20044;-39
2022/10/06 01:44:41;;;;;;;11.95;0.65;;;10.80;99.90;;;;;;5046848;28;20057;-39
2022/10/06 01:47:07;;;;;;;12.75;1.23;;;11.60;99.90;;;;;;5047083;28;20123;-40
2022/10/06 01:49:33;;;;;;;11.15;0.82;;;10.70;99.90;;;;;;5046984;28;20506;-40
2022/10/06 01:51:59;;;;;;;14.75;0.82;;;10.50;99.90;;;;;;5046741;28;20498;-39
2022/10/06 01:54:25;;;;;;;11.63;1.42;;;10.80;99.90;;;;;;5046451;28;20045;-40
2022/10/06 01:56:50;;;;;;;10.75;1.05;;;10.50;99.90;;;;;;5046242;28;20491;-40
2022/10/06 01:59:16;;;;;;;16.35;1.52;;;11.20;99.90;;;;;;5046016;28;20463;-39
2022/10/06 02:01:42;;;;;;;26.02;3.42;;;10.80;99.90;;;;;;5046205;28;20394;-40
2022/10/06 02:04:07;;;;;;;10.00;1.00;;;10.70;99.90;;;;;;5045827;28;20096;-39
2022/10/06 02:06:33;;;;;;;15.00;1.58;;;10.50;99.90;;;;;;5046111;28;20113;-40
2022/10/06 02:09:02;;;;;;;9.43;1.00;;;10.50;99.90;;;;;;5045780;28;20045;-39
2022/10/06 02:11:28;;;;;;;9.32;0.60;;;10.40;99.90;;;;;;5046713;28;20723;-39
2022/10/06 02:13:54;;;;;;;7.53;0.63;;;10.30;99.90;;;;;;5046221;28;20041;-39
2022/10/06 02:16:19;;;;;;;11.32;1.10;;;10.30;99.90;;;;;;5046284;28;20056;-40
2022/10/06 02:18:45;;;;;;;8.90;1.27;;;10.40;99.90;;;;;;5046202;28;20037;-39
2022/10/06 02:21:20;;;;;;;14.75;1.40;;;11.30;99.90;;;;;;5046090;28;20040;-39
2022/10/06 02:23:46;;;;;;;15.45;1.40;;;10.70;99.90;;;;;;5046182;28;20037;-39
2022/10/06 02:26:16;;;;;;;17.45;1.63;;;10.30;99.90;;;;;;5045773;28;20045;-39
2022/10/06 02:28:43;;;;;;;12.13;2.00;;;10.40;99.90;;;;;;5046149;28;20116;-39
2022/10/06 02:31:10;;;;;;;9.20;0.80;;;11.00;99.90;;;;;;5045364;28;20570;-39
2022/10/06 02:33:37;;;;;;;15.35;1.10;;;11.10;99.90;;;;;;5045903;28;20100;-39
2022/10/06 02:36:04;;;;;;;9.07;0.80;;;9.90;99.90;;;;;;5045520;28;20458;-39
2022/10/06 02:38:31;;;;;;;7.97;0.57;;;9.90;99.90;;;;;;5045853;28;20041;-40
2022/10/06 02:40:58;;;;;;;11.15;1.15;;;10.20;99.90;;;;;;5045606;28;20049;-39
2022/10/06 02:43:27;;;;;;;15.98;1.15;;;10.20;99.90;;;;;;5045496;28;20624;-38
2022/10/06 02:45:58;;;;;;;12.30;1.55;;;10.70;99.90;;;;;;5045367;28;20052;-39
2022/10/06 02:48:25;;;;;;;9.93;0.70;;;9.90;99.90;;;;;;5045522;28;20044;-39
2022/10/06 02:51:02;;;;;;;12.18;1.17;;;10.40;99.90;;;;;;5045207;28;20544;-41
2022/10/06 02:53:28;;;;;;;13.02;1.13;;;9.70;99.90;;;;;;5045082;28;20041;-39
2022/10/06 02:56:02;;;;;;;10.43;0.80;;;10.30;99.90;;;;;;5045160;28;20044;-39
2022/10/06 02:58:29;;;;;;;9.82;0.70;;;9.80;99.90;;;;;;5045611;28;20040;-39
2022/10/06 03:01:00;;;;;;;11.20;0.55;;;9.90;99.90;;;;;;5045448;28;20154;-39
2022/10/06 03:03:26;;;;;;;9.20;1.23;;;10.60;99.90;;;;;;5045776;28;20106;-39
2022/10/06 03:06:03;;;;;;;5.90;1.02;;;10.50;99.90;;;;;;5045295;28;20483;-39
2022/10/06 03:08:28;;;;;;;15.75;2.10;;;10.00;99.90;;;;;;5045760;28;20037;-39
2022/10/06 03:11:05;;;;;;;10.13;1.00;;;9.70;99.90;;;;;;5044916;28;20037;-38
2022/10/06 03:13:31;;;;;;;17.50;1.35;;;9.70;99.90;;;;;;5044972;28;20051;-39
2022/10/06 03:15:57;;;;;;;11.60;1.35;;;9.60;99.90;;;;;;5045274;28;20053;-39
2022/10/06 03:18:23;;;;;;;12.27;1.08;;;10.20;99.90;;;;;;5045095;28;20041;-39
2022/10/06 03:20:49;;;;;;;13.40;1.50;;;9.50;99.90;;;;;;5044964;28;20499;-39
2022/10/06 03:23:15;;;;;;;13.85;0.85;;;10.00;99.90;;;;;;5045311;28;20410;-39
2022/10/06 03:25:41;;;;;;;11.50;0.93;;;9.40;99.90;;;;;;5044880;28;20117;-39
2022/10/06 03:28:06;;;;;;;14.23;1.35;;;9.40;99.90;;;;;;5048895;28;20048;-39
2022/10/06 03:30:32;;;;;;;8.32;1.48;;;9.70;99.90;;;;;;5049350;28;20045;-39
2022/10/06 03:33:00;;;;;;;7.68;0.82;;;9.50;99.90;;;;;;5049107;28;20041;-39
2022/10/06 03:35:26;;;;;;;14.52;1.55;;;9.40;99.90;;;;;;5048793;28;20053;-39
2022/10/06 03:37:51;;;;;;;11.43;1.13;;;9.30;99.90;;;;;;5048794;28;20053;-39
2022/10/06 03:40:18;;;;;;;15.18;0.80;;;9.50;99.90;;;;;;5048530;28;20053;-39
2022/10/06 03:42:43;;;;;;;13.32;0.93;;;9.30;99.90;;;;;;5048990;28;20403;-39
2022/10/06 03:45:09;;;;;;;7.20;0.52;;;9.30;99.90;;;;;;5048159;28;20049;-39
2022/10/06 03:47:35;;;;;;;11.98;1.20;;;9.80;99.90;;;;;;5048454;28;20037;-39
2022/10/06 03:50:00;;;;;;;5.70;0.90;;;9.40;99.90;;;;;;5048425;28;20056;-39
2022/10/06 03:52:26;;;;;;;11.68;0.95;;;9.30;99.90;;;;;;5048465;28;20040;-39
2022/10/06 03:54:52;;;;;;;10.65;0.70;;;9.40;99.90;;;;;;5048571;28;20045;-39
2022/10/06 03:57:18;;;;;;;9.27;1.00;;;9.60;99.90;;;;;;5048696;28;20045;-39
2022/10/06 03:59:44;;;;;;;9.93;0.88;;;9.50;99.90;;;;;;5048620;28;20467;-39
2022/10/06 04:02:10;;;;;;;13.65;0.85;;;9.30;99.90;;;;;;5048467;28;20395;-39
2022/10/06 04:04:36;;;;;;;12.75;1.02;;;10.00;99.90;;;;;;5048554;28;20044;-39
2022/10/06 04:07:02;;;;;;;12.13;1.25;;;9.30;99.90;;;;;;5048567;28;20574;-39
2022/10/06 04:09:28;;;;;;;10.68;0.88;;;9.10;99.90;;;;;;5048072;28;20045;-39
2022/10/06 04:11:54;;;;;;;12.32;1.73;;;9.40;99.90;;;;;;5048761;28;20047;-39
2022/10/06 04:14:19;;;;;;;10.20;0.70;;;9.30;99.90;;;;;;5063780;28;20510;-39
2022/10/06 04:16:47;;;;;;;9.40;0.68;;;9.10;99.90;;;;;;5048613;28;20040;-39
2022/10/06 04:19:14;;;;;;;13.85;1.08;;;9.30;99.90;;;;;;5048282;28;20045;-39
2022/10/06 04:21:43;;;;;;;13.52;0.95;;;9.10;99.90;;;;;;5048529;28;20451;-39
2022/10/06 04:24:10;;;;;;;16.60;1.17;;;9.60;99.90;;;;;;5048315;28;20045;-39
2022/10/06 04:26:39;;;;;;;10.15;1.15;;;9.10;99.90;;;;;;5047662;28;20076;-39
2022/10/06 04:29:05;;;;;;;9.35;0.93;;;9.00;99.90;;;;;;5048263;28;20045;-39
2022/10/06 04:31:37;;;;;;;11.32;0.70;;;9.50;99.90;;;;;;5048325;28;20029;-39
2022/10/06 04:34:04;;;;;;;;;;;8.80;99.90;;;;;;5048656;28;20048;-39
2022/10/06 04:36:35;;;;;;;10.32;0.70;;;8.90;99.90;;;;;;5047735;28;19987;-38
2022/10/06 04:39:03;;;;;;;9.75;0.80;;;9.30;99.90;;;;;;5047892;28;20044;-39
2022/10/06 04:41:37;;;;;;;9.23;0.93;;;8.70;99.90;;;;;;5047475;28;20048;-39
2022/10/06 04:44:05;;;;;;;14.10;1.05;;;8.60;99.90;;;;;;5047787;28;20176;-39
2022/10/06 04:46:32;;;;;;;9.77;0.90;;;8.60;99.90;;;;;;5063379;28;20041;-39
2022/10/06 04:48:58;;;;;;;8.25;0.70;;;8.60;99.90;;;;;;5048446;28;20116;-40
2022/10/06 04:51:25;;;;;;;15.23;1.67;;;8.40;99.90;;;;;;5047464;28;20183;-39
2022/10/06 04:53:51;;;;;;;12.48;1.38;;;8.40;99.90;;;;;;5047907;28;20052;-39
2022/10/06 04:56:19;;;;;;;8.60;1.10;;;9.20;99.90;;;;;;5047437;28;20407;-39
2022/10/06 04:58:50;;;;;;;13.07;1.50;;;8.50;99.90;;;;;;5047842;28;20040;-39
2022/10/06 05:01:25;;;;;;;16.63;1.58;;;9.00;99.90;;;;;;5047762;28;20419;-39
2022/10/06 05:03:54;;;;;;;13.88;1.38;;;8.50;99.90;;;;;;5047870;28;20446;-38
2022/10/06 05:06:26;;;;;;;9.95;0.82;;;8.70;99.90;;;;;;5047277;28;20068;-39
2022/10/06 05:09:01;;;;;;;13.52;1.35;;;8.50;99.90;;;;;;5045770;28;20051;-39
2022/10/06 05:11:27;;;;;;;9.20;1.92;;;9.20;99.90;;;;;;5047350;28;20037;-39
2022/10/06 05:13:55;;;;;;;7.07;0.70;;;9.10;99.90;;;;;;5047340;28;20045;-39
2022/10/06 05:16:22;;;;;;;13.32;1.27;;;8.90;99.90;;;;;;5046847;28;20049;-39
2022/10/06 05:18:48;;;;;;;12.93;1.25;;;8.80;99.90;;;;;;5047360;28;20037;-39
2022/10/06 05:21:21;;;;;;;13.25;1.85;;;8.40;99.90;;;;;;5047057;28;20099;-39
2022/10/06 05:23:47;;;;;;;10.63;0.93;;;8.50;99.90;;;;;;5046915;28;20040;-39
2022/10/06 05:26:18;;;;;;;9.52;1.00;;;8.40;99.90;;;;;;5046823;28;20039;-39
2022/10/06 05:28:44;;;;;;;7.70;0.77;;;8.50;99.90;;;;;;5046670;28;20506;-38
2022/10/06 05:31:14;;;;;;;12.75;0.90;;;9.40;99.90;;;;;;5046799;28;20271;-39
2022/10/06 05:33:40;;;;;;;13.15;1.45;;;8.90;99.90;;;;;;5046579;28;20453;-38
2022/10/06 05:36:27;;;;;;;11.93;0.98;;;8.40;99.90;;;;;;5046826;28;20033;-38
2022/10/06 05:38:53;;;;;;;13.77;1.05;;;8.40;99.90;;;;;;5047173;28;20446;-38
2022/10/06 05:41:25;;;;;;;10.65;1.05;;;8.30;99.90;;;;;;5046668;28;20036;-38
2022/10/06 05:43:52;;;;;;;13.50;1.85;;;8.50;99.90;;;;;;5046451;28;20056;-38
2022/10/06 05:46:22;;;;;;;17.98;1.17;;;8.50;99.90;;;;;;5046837;28;20053;-38
2022/10/06 05:48:50;;;;;;;10.82;0.90;;;8.50;99.90;;;;;;5045846;28;20491;-38
2022/10/06 05:51:18;;;;;;;10.07;1.25;;;8.40;99.90;;;;;;5046584;28;20049;-38
2022/10/06 05:53:44;;;;;;;20.10;1.73;;;8.40;99.90;;;;;;5046454;28;20037;-38
2022/10/06 05:56:16;;;;;;;11.23;1.05;;;8.50;99.90;;;;;;5046464;28;20479;-38
2022/10/06 05:58:44;;;;;;;13.53;0.83;;;9.30;99.90;;;;;;5061404;28;20703;-38
2022/10/06 06:01:14;;;;;;;14.95;1.25;;;8.50;99.90;;;;;;5046412;28;20677;-39
2022/10/06 06:03:41;;;;;;;13.32;1.20;;;8.40;99.90;;;;;;5045933;28;20037;-39
2022/10/06 06:06:31;;;;;;;16.17;2.05;;;8.40;99.90;;;;;;5045933;28;20044;-39
2022/10/06 06:09:06;;;;;;;16.08;1.48;;;8.50;99.90;;;;;;5046140;28;20048;-39
2022/10/06 06:11:33;;;;;;;14.13;1.05;;;8.50;99.90;;;;;;5046034;28;20037;-39
2022/10/06 06:14:01;;;;;;;9.90;0.90;;;8.40;99.90;;;;;;5046011;28;20045;-37
2022/10/06 06:16:29;;;;;;;15.02;1.55;;;8.40;99.90;;;;;;5060937;28;20095;-38
2022/10/06 06:18:56;;;;;;;9.50;1.42;;;8.40;99.90;;;;;;5046200;28;20443;-38
2022/10/06 06:21:22;;;;;;;15.77;2.53;;;8.50;99.90;;;;;;5045543;28;20041;-38
2022/10/06 06:23:48;;;;;;;12.32;1.50;;;8.60;99.90;;;;;;5045224;28;20143;-39
2022/10/06 06:26:22;;;;;;;9.13;0.80;;;9.20;99.90;;;;;;5045568;28;20045;-38
2022/10/06 06:28:53;;;;;;;8.40;0.77;;;8.50;99.90;;;;;;5045335;28;20095;-39
2022/10/06 06:31:25;;;;;;;17.15;1.42;;;8.70;99.90;;;;;;5045826;28;20075;-39
2022/10/06 06:33:55;;;;;;;11.48;0.88;;;8.50;99.90;;;;;;5045786;28;20116;-39
2022/10/06 06:36:24;;;;;;;20.88;1.52;;;8.70;99.90;;;;;;5046093;28;20394;-39
2022/10/06 06:38:51;;;;;;;12.88;1.35;;;8.70;99.90;;;;;;5045749;28;20033;-39
2022/10/06 06:41:22;;;;;;;13.18;1.20;;;8.70;99.90;;;;;;5045972;28;20033;-39
2022/10/06 06:43:49;;;;;;;12.73;2.55;;;8.90;99.90;;;;;;5045817;28;20132;-39
2022/10/06 06:46:17;;;;;;;14.95;1.00;;;8.80;99.90;;;;;;5045522;28;20506;-39
2022/10/06 06:48:43;;;;;;;14.93;1.70;;;8.90;99.90;;;;;;5045518;28;20037;-39
2022/10/06 06:51:10;;;;;;;15.02;1.65;;;9.70;99.90;;;;;;5045623;28;20175;-39
2022/10/06 06:53:38;;;;;;;12.38;1.50;;;9.60;99.90;;;;;;5045508;28;20041;-39
2022/10/06 06:56:05;;;;;;;13.30;2.05;;;9.20;99.90;;;;;;5045653;28;20037;-39
2022/10/06 06:58:31;;;;;;;12.80;1.10;;;9.20;99.90;;;;;;5045459;28;20041;-39
2022/10/06 07:01:09;;;;;;;12.57;1.00;;;9.10;99.90;;;;;;5047052;28;20115;-39
2022/10/06 07:03:35;;;;;;;12.90;0.85;;;9.40;99.90;;;;;;5049266;28;20049;-39
2022/10/06 07:06:09;;;;;;;13.63;1.30;;;9.40;99.90;;;;;;5049947;28;20049;-39
2022/10/06 07:08:43;;;;;;;19.27;1.58;;;9.30;99.90;;;;;;5049259;28;20071;-39
2022/10/06 07:11:18;;;;;;;13.18;1.27;;;9.40;99.90;;;;;;5049794;28;20167;-38
2022/10/06 07:13:45;;;;;;;13.32;1.25;;;9.70;99.90;;;;;;5049396;28;20498;-39
2022/10/06 07:27:32;;;;;;;12.32;2.53;;;11.00;99.90;;;;;;5048755;28;20045;-39
2022/10/06 07:29:57;;;;;;;17.33;1.27;;;10.60;99.90;;;;;;5048618;28;20114;-39
2022/10/06 07:32:25;;;;;;;13.55;1.23;;;11.60;99.90;;;;;;5048598;28;20474;-39
2022/10/06 07:34:51;;;;;;;10.55;1.50;;;10.70;99.90;;;;;;5048778;28;20056;-39
2022/10/06 07:37:18;;;;;;;14.50;0.90;;;11.50;99.90;;;;;;5048697;28;20048;-39
2022/10/06 07:39:45;;;;;;;11.63;1.48;;;11.50;99.90;;;;;;5048566;28;20340;-39
2022/10/06 07:42:14;;;;;;;7.72;1.00;;;11.10;99.90;;;;;;5048483;28;20083;-39
2022/10/06 07:45:36;;;;;;;10.77;1.02;;;11.60;99.90;;;;;;5047653;28;20150;-38
2022/10/06 07:47:30;;;;;;;11.00;1.17;;;11.30;99.90;;;;;;5048371;28;20044;-39
2022/10/06 07:49:57;;;;;;;15.13;1.77;;;11.80;99.90;;;;;;5048580;28;20390;-39
2022/10/06 07:52:23;;;;;;;8.77;0.98;;;11.50;99.90;;;;;;5063434;28;20762;-38
2022/10/06 07:54:49;;;;;;;11.73;1.52;;;11.50;99.90;;;;;;5047875;28;20394;-39
2022/10/06 07:57:15;;;;;;;15.25;1.15;;;12.30;99.90;;;;;;5048176;28;20495;-38
2022/10/06 07:59:40;;;;;;;12.65;0.95;;;11.90;99.90;;;;;;5048425;28;20049;-38
2022/10/06 08:02:06;;;;;;;14.73;1.50;;;11.80;99.90;;;;;;5048208;28;20060;-38
2022/10/06 08:04:32;;;;;;;23.33;3.88;;;11.70;99.90;;;;;;5048361;28;20045;-38
2022/10/06 08:06:57;;;;;;;11.65;1.45;;;11.80;99.90;;;;;;5048275;28;20041;-38
2022/10/06 08:09:23;;;;;;;11.07;1.25;;;12.60;99.90;;;;;;5048624;28;20066;-38
2022/10/06 08:11:48;;;;;;;8.82;1.40;;;12.00;99.90;;;;;;5047164;28;20044;-39
2022/10/06 08:14:14;;;;;;;10.50;0.60;;;12.90;99.90;;;;;;5048214;28;20052;-39
2022/10/06 08:16:40;;;;;;;11.70;0.73;;;12.50;99.90;;;;;;5048483;28;20045;-39
2022/10/06 08:19:06;;;;;;;8.07;0.85;;;12.80;99.90;;;;;;5048037;28;20048;-38
2022/10/06 08:21:35;;;;;;;7.68;1.52;;;13.40;99.90;;;;;;5048221;28;20144;-38
2022/10/06 08:24:01;;;;;;;10.88;1.10;;;12.80;99.90;;;;;;5047387;28;20080;-38
2022/10/06 08:26:27;;;;;;;11.82;1.02;;;13.10;99.90;;;;;;5047992;28;20077;-38
2022/10/06 08:29:01;;;;;;;13.52;2.42;;;13.70;99.90;;;;;;5047846;28;20506;-38
2022/10/06 08:31:29;;;;;;;9.32;0.90;;;13.20;99.90;;;;;;5048319;28;20082;-38
2022/10/06 08:33:55;;;;;;;11.68;1.45;;;13.20;99.90;;;;;;5047030;28;20505;-38
2022/10/06 08:36:22;;;;;;;8.18;0.95;;;13.30;99.90;;;;;;5047330;28;20037;-39
2022/10/06 08:38:51;;;;;;;10.63;1.42;;;13.30;99.90;;;;;;5046692;28;20470;-38
2022/10/06 08:41:22;;;;;;;11.38;0.95;;;13.30;99.90;;;;;;5046918;28;20049;-38
2022/10/06 08:44:00;;;;;;;8.38;1.00;;;13.40;99.90;;;;;;5047076;28;20140;-38
2022/10/06 08:46:38;;;;;;;10.75;0.93;;;14.00;99.90;;;;;;5047066;28;20049;-38
2022/10/06 08:49:05;;;;;;;12.30;1.95;;;13.70;99.90;;;;;;5046902;28;20044;-38
2022/10/06 08:51:48;;;;;;;13.15;0.77;;;13.80;99.90;;;;;;5047317;28;20033;-38
2022/10/06 08:54:19;;;;;;;12.20;2.90;;;13.90;99.90;;;;;;5046937;28;20142;-38
2022/10/06 08:57:04;;;;;;;12.93;1.08;;;14.40;99.90;;;;;;5047602;28;20048;-38
2022/10/06 08:59:36;;;;;;;13.88;2.35;;;14.10;99.90;;;;;;5047612;28;20712;-38
2022/10/06 09:02:06;;;;;;;11.80;1.00;;;14.20;99.90;;;;;;5047179;28;20462;-38
2022/10/06 09:04:33;;;;;;;10.82;1.15;;;14.70;99.90;;;;;;5047062;28;20391;-38
2022/10/06 09:07:11;;;;;;;8.23;1.25;;;14.40;99.90;;;;;;5046858;28;20529;-39
2022/10/06 09:10:02;;;;;;;10.10;1.00;;;14.50;99.90;;;;;;5047229;28;20045;-38
2022/10/06 09:12:50;;;;;;;7.93;1.77;;;15.10;99.90;;;;;;5047374;28;20118;-39
2022/10/06 09:15:22;;;;;;;8.48;1.73;;;14.60;99.90;;;;;;5047179;28;20419;-38
2022/10/06 09:18:07;;;;;;;8.75;1.65;;;14.70;99.90;;;;;;5046880;28;20056;-39
2022/10/06 09:20:45;;;;;;;14.05;1.67;;;14.70;99.90;;;;;;5046578;28;20495;-39
2022/10/06 09:23:16;;;;;;;11.55;2.45;;;14.80;99.90;;;;;;5046132;28;20052;-39
2022/10/06 09:25:43;;;;;;;9.13;1.70;;;15.00;99.90;;;;;;5045793;28;20097;-39
2022/10/06 09:28:14;;;;;;;13.38;2.38;;;;;;;;;;5046647;28;20511;-39
2022/10/06 09:30:41;;;;;;;18.48;2.55;;;15.00;99.90;;;;;;5047257;28;20036;-39
2022/10/06 09:33:16;;;;;;;18.48;2.80;;;15.00;99.90;;;;;;5046780;28;20044;-39
2022/10/06 09:36:08;;;;;;;7.25;1.73;;;15.10;99.90;;;;;;5047190;28;20206;-39
2022/10/06 09:38:52;;;;;;;12.07;2.08;;;15.20;99.90;;;;;;5046675;28;20060;-39
2022/10/06 09:41:43;;;;;;;13.85;1.70;;;15.40;99.90;;;;;;5047106;28;20049;-39
2022/10/06 09:44:44;;;;;;;12.82;2.47;;;15.40;99.90;;;;;;5046663;28;20060;-39
2022/10/06 09:47:31;;;;;;;12.95;1.95;;;15.60;99.90;;;;;;5035180;28;20049;-39
2022/10/06 09:50:26;;;;;;;8.00;1.25;;;15.60;99.90;;;;;;5046469;28;20147;-39
2022/10/06 09:53:02;;;;;;;9.80;1.05;;;15.70;99.90;;;;;;5046310;28;20554;-39
2022/10/06 09:55:36;;;;;;;7.72;1.23;;;15.80;99.90;;;;;;5046450;28;20056;-39
2022/10/06 09:58:14;;;;;;;9.57;1.50;;;15.80;99.90;;;;;;5046177;28;20076;-39
2022/10/06 10:00:58;;;;;;;5.00;0.80;;;15.90;99.90;;;;;;5046188;28;20048;-39
2022/10/06 10:03:38;;;;;;;9.98;1.20;;;15.90;99.90;;;;;;5045770;28;20045;-40
2022/10/06 10:06:04;;;;;;;8.27;1.20;;;16.00;99.90;;;;;;5045469;28;20107;-39
2022/10/06 10:08:30;;;;;;;9.32;0.98;;;16.00;99.90;;;;;;5045526;28;20395;-38
2022/10/06 10:14:15;;;;;;;8.82;1.67;;;16.30;99.90;;;;;;5044181;28;20048;-38
2022/10/06 10:16:41;;;;;;;7.68;0.73;;;16.40;99.90;;;;;;5045846;28;20570;-39
2022/10/06 10:19:26;;;;;;;7.32;1.58;;;16.50;99.90;;;;;;5045730;28;20119;-39
2022/10/06 10:21:55;;;;;;;6.68;0.70;;;16.50;99.90;;;;;;5046188;28;20033;-38
2022/10/06 10:24:50;;;;;;;8.18;0.55;;;16.40;99.90;;;;;;5045087;28;20406;-38
2022/10/06 10:27:30;;;;;;;10.65;0.98;;;16.30;99.90;;;;;;5045353;28;20044;-38
2022/10/06 10:30:08;;;;;;;8.48;0.75;;;16.10;99.90;;;;;;5045463;28;20055;-39
2022/10/06 10:32:57;;;;;;;6.20;0.70;;;16.00;99.90;;;;;;5045348;28;20613;-38
2022/10/06 10:35:40;;;;;;;8.95;0.93;;;16.10;99.90;;;;;;5045511;28;20391;-38
2022/10/06 10:38:23;;;;;;;8.52;1.08;;;16.00;99.90;;;;;;5045455;28;20057;-38
2022/10/06 10:40:54;;;;;;;7.43;0.93;;;15.80;99.90;;;;;;5046283;28;20044;-38
2022/10/06 10:43:36;;;;;;;5.68;0.57;;;15.60;99.90;;;;;;5045708;28;20060;-38
2022/10/06 10:46:07;;;;;;;6.50;0.80;;;15.40;99.90;;;;;;5045761;28;20076;-38
2022/10/06 10:48:44;;;;;;;5.55;0.60;;;15.10;99.90;;;;;;5045618;28;20075;-38
2022/10/06 10:51:30;;;;;;;7.60;0.50;;;15.20;99.90;;;;;;5044790;28;20202;-38
2022/10/06 10:54:30;;;;;;;6.40;0.75;;;15.10;99.90;;;;;;5045216;28;20049;-38
2022/10/06 10:56:57;;;;;;;6.07;0.60;;;15.20;99.90;;;;;;5045045;28;20045;-39
2022/10/06 10:59:50;;;;;;;5.43;0.30;;;15.40;99.90;;;;;;5045233;28;20091;-38
2022/10/06 11:02:20;;;;;;;5.95;0.60;;;15.60;99.90;;;;;;5044938;28;20044;-38
2022/10/06 11:04:53;;;;;;;4.57;0.43;;;15.80;99.90;;;;;;5044910;28;20060;-38
2022/10/06 11:07:29;;;;;;;6.22;0.63;;;15.90;99.90;;;;;;5044790;28;20119;-38
2022/10/06 11:10:21;;;;;;;8.43;1.40;;;16.00;99.90;;;;;;5045055;28;20048;-38
2022/10/06 11:13:24;;;;;;;6.45;0.35;;;16.40;99.90;;;;;;5045031;28;20048;-39
2022/10/06 11:16:24;;;;;;;14.02;1.30;;;16.40;99.90;;;;;;5045145;28;20120;-38
2022/10/06 11:19:21;;;;;;;13.77;1.85;;;16.70;99.90;;;;;;5045349;28;20049;-39
2022/10/06 11:21:53;;;;;;;6.40;0.75;;;16.80;99.90;;;;;;5045750;28;20167;-39
2022/10/06 11:24:44;;;;;;;6.00;0.68;;;16.80;99.90;;;;;;5045617;28;20049;-39
2022/10/06 11:27:39;;;;;;;10.32;0.93;;;16.70;99.90;;;;;;5045036;28;20033;-39
2022/10/06 11:30:18;;;;;;;8.18;0.63;;;16.70;99.90;;;;;;5045547;28;20045;-39
2022/10/06 11:33:07;;;;;;;4.05;0.65;;;16.70;99.90;;;;;;5045430;28;20033;-39
2022/10/06 11:35:35;;;;;;;10.80;1.52;;;18.00;99.90;;;;;;5037170;28;20048;-39
2022/10/06 11:38:13;;;;;;;7.45;0.70;;;16.50;99.90;;;;;;5045038;28;20072;-39
2022/10/06 11:40:46;;;;;;;9.18;1.45;;;16.50;99.90;;;;;;5044983;28;20279;-39
2022/10/06 11:43:45;;;;;;;8.43;0.77;;;16.60;99.90;;;;;;5044485;28;20045;-39
2022/10/06 11:46:19;;;;;;;8.40;0.60;;;16.60;99.90;;;;;;5044320;28;20049;-39
2022/10/06 11:48:45;;;;;;;6.57;0.60;;;16.60;99.90;;;;;;5047530;28;20049;-39
2022/10/06 11:51:28;;;;;;;6.03;0.50;;;16.50;99.90;;;;;;5048767;28;20044;-39
2022/10/06 11:53:54;;;;;;;11.82;1.00;;;16.50;99.90;;;;;;5048738;28;20106;-39
2022/10/06 11:56:20;;;;;;;7.65;0.55;;;16.50;99.90;;;;;;5048444;28;20429;-39
2022/10/06 11:58:54;;;;;;;6.50;0.85;;;16.40;99.90;;;;;;5048518;28;20135;-39
2022/10/06 12:01:29;;;;;;;7.20;0.40;;;16.40;99.90;;;;;;5048409;28;20044;-39
2022/10/06 12:04:07;;;;;;;5.43;0.40;;;16.40;99.90;;;;;;5048525;28;20045;-39
2022/10/06 12:06:43;;;;;;;6.30;0.30;;;16.20;99.90;;;;;;5048029;28;20052;-39
2022/10/06 12:09:30;;;;;;;5.32;0.47;;;16.20;99.90;;;;;;5048114;28;20958;-39
2022/10/06 12:12:04;;;;;;;9.00;0.95;;;16.10;99.90;;;;;;5048304;28;20041;-39
2022/10/06 12:14:50;;;;;;;4.78;0.30;;;16.10;99.90;;;;;;5048061;28;20053;-39
2022/10/06 12:17:38;;;;;;;3.20;0.32;;;16.10;99.90;;;;;;5047817;28;20041;-39
2022/10/06 12:20:41;;;;;;;4.13;0.38;;;16.10;99.90;;;;;;5048222;28;20072;-39
2022/10/06 12:23:07;;;;;;;7.43;0.45;;;16.10;99.90;;;;;;5047457;28;20056;-38
2022/10/06 12:25:52;;;;;;;5.88;0.68;;;16.10;99.90;;;;;;5047018;28;20045;-38
2022/10/06 12:28:24;;;;;;;4.57;0.30;;;16.10;99.90;;;;;;5047166;28;20057;-38
2022/10/06 12:31:05;;;;;;;6.53;0.40;;;16.10;99.90;;;;;;5047795;28;20127;-38
2022/10/06 12:33:41;;;;;;;6.38;0.43;;;16.10;99.90;;;;;;5047947;28;20064;-38
2022/10/06 12:36:22;;;;;;;5.90;0.60;;;16.10;99.90;;;;;;5047579;28;20056;-38
2022/10/06 12:39:09;;;;;;;4.53;0.30;;;16.10;99.90;;;;;;5047710;28;20167;-39
2022/10/06 12:41:56;;;;;;;5.10;0.30;;;16.10;99.90;;;;;;5047340;28;20045;-39
2022/10/06 12:44:24;;;;;;;8.55;0.30;;;16.10;99.90;;;;;;5062001;28;20140;-39
2022/10/06 12:46:50;;;;;;;3.22;0.30;;;16.10;99.90;;;;;;5048354;28;20037;-39
2022/10/06 12:49:30;;;;;;;3.67;0.30;;;16.10;99.90;;;;;;5048027;28;20498;-39
2022/10/06 12:51:57;;;;;;;2.63;0.43;;;16.10;99.90;;;;;;5047411;28;20045;-39
2022/10/06 12:54:27;;;;;;;6.68;0.40;;;16.10;99.90;;;;;;5046954;28;20045;-39
2022/10/06 12:57:01;;;;;;;2.95;0.20;;;16.00;99.90;;;;;;5046778;28;20529;-39
2022/10/06 12:59:32;;;;;;;3.58;0.43;;;16.00;99.90;;;;;;5046590;28;20095;-39
2022/10/06 13:02:01;;;;;;;8.98;0.70;;;16.00;99.90;;;;;;5047111;28;20453;-39
2022/10/06 13:04:41;;;;;;;5.50;0.90;;;15.90;99.90;;;;;;5046459;28;20556;-38
2022/10/06 13:07:27;;;;;;;6.30;0.77;;;16.20;99.90;;;;;;5047288;28;20045;-39
2022/10/06 13:10:10;;;;;;;3.38;0.30;;;15.90;99.90;;;;;;5047243;28;20395;-39
2022/10/06 13:12:37;;;;;;;5.28;0.50;;;15.80;99.90;;;;;;5046579;28;20044;-39
2022/10/06 13:15:22;;;;;;;5.00;0.57;;;15.80;99.90;;;;;;5047225;28;20051;-39
2022/10/06 13:17:54;;;;;;;7.53;0.95;;;15.70;99.90;;;;;;5046904;28;20060;-39
2022/10/06 13:20:27;;;;;;;;;;;15.70;99.90;;;;;;5047512;28;20041;-39
2022/10/06 13:22:58;;;;;;;4.47;0.55;;;15.60;99.90;;;;;;5047268;28;19960;-39